CDT,Max TemperatureF,Mean TemperatureF,Min TemperatureF,Max Dew PointF,MeanDew PointF,Min DewpointF,Max Humidity, Mean Humidity, Min Humidity, Max Sea Level PressureIn, Mean Sea Level PressureIn, Min Sea Level PressureIn, Max VisibilityMiles, Mean VisibilityMiles, Min VisibilityMiles, Max Wind SpeedMPH, Mean Wind SpeedMPH, Max Gust SpeedMPH,PrecipitationIn, CloudCover, Events, WindDirDegrees
2013-8-1,97,87,76,76,74,72,88,68,48,30.02,29.98,29.93,10,10,9,14,4,17,T,2,Rain,25
2013-8-2,97,85,72,76,73,71,93,69,45,30.00,29.97,29.93,10,9,2,8,2,10,0.00,0,,68
2013-8-3,97,87,76,77,74,72,94,71,48,30.05,30.01,29.96,10,9,6,12,4,15,0.00,0,,261
2013-8-4,99,86,73,77,73,71,100,73,45,30.11,30.05,29.98,10,7,0,12,3,14,0.00,1,Fog,20
2013-8-5,97,86,75,76,74,72,94,70,45,30.04,29.99,29.92,10,10,6,14,5,23,0.00,0,,236
2013-8-6,98,87,76,75,72,69,94,67,40,29.98,29.92,29.87,10,10,9,13,6,20,0.00,0,,209
2013-8-7,100,88,76,75,72,68,91,65,38,29.97,29.91,29.86,10,9,6,12,4,15,0.00,0,,201
2013-8-8,98,86,74,75,70,63,94,63,31,29.95,29.90,29.86,10,8,5,12,4,20,0.00,0,,194
2013-8-9,100,86,71,75,72,69,93,68,42,30.02,29.96,29.91,10,9,6,20,3,29,0.00,0,,146
2013-8-10,99,86,72,76,73,70,100,70,39,30.08,30.03,29.97,10,8,1,14,3,21,0.00,1,,156
2013-8-11,98,86,73,75,72,70,100,73,45,30.11,30.06,30.01,10,10,7,16,4,23,0.00,1,Thunderstorm,177
2013-8-12,95,84,73,75,73,71,100,73,46,30.11,30.04,29.97,10,10,9,15,6,21,T,1,Thunderstorm,205
2013-8-13,92,82,71,76,73,71,100,80,60,30.02,29.98,29.94,10,10,7,18,6,24,0.02,2,Rain-Thunderstorm,216
2013-8-14,88,79,69,73,69,59,100,74,48,30.06,29.99,29.95,10,10,9,18,10,24,0.00,5,,17
2013-8-15,88,76,63,66,61,58,90,65,40,30.06,30.01,29.96,10,10,10,14,5,16,0.00,1,,9
2013-8-16,87,74,61,63,59,55,90,63,35,30.04,30.01,29.98,10,10,10,14,6,18,0.00,0,,11
2013-8-17,88,77,65,70,66,62,93,72,50,30.04,30.01,29.98,10,9,5,15,5,21,0.00,2,,26
2013-8-18,91,78,65,69,65,62,100,71,41,30.08,30.03,29.99,10,7,1,16,6,21,0.00,1,,53
2013-8-19,93,79,65,70,66,61,100,68,36,30.09,30.04,29.97,10,6,0,10,3,18,0.00,1,Fog,19
2013-8-20,94,80,65,70,66,59,100,67,33,30.09,30.03,29.99,10,8,1,10,2,15,0.00,1,,139
2013-8-21,95,82,68,74,71,68,97,73,49,30.14,30.08,30.04,10,9,5,13,1,18,0.03,1,Rain-Thunderstorm,157
2013-8-22,96,83,69,75,70,67,97,69,41,30.13,30.07,29.98,10,9,2,12,2,17,T,0,,168
2013-8-23,97,85,72,74,71,69,94,70,46,30.04,29.99,29.94,10,10,7,20,4,24,T,2,Thunderstorm,46
2013-8-24,96,84,71,73,70,66,93,67,40,30.11,30.06,30.01,10,8,1,15,4,21,0.00,1,,84
2013-8-25,94,82,69,71,69,67,100,72,44,30.20,30.15,30.10,10,10,2,13,4,22,0.00,1,,98
2013-8-26,95,83,70,72,66,58,93,62,30,30.23,30.16,30.10,10,10,6,12,4,18,0.00,1,,107
2013-8-27,96,81,65,71,66,61,100,66,31,30.16,30.11,30.03,10,7,0,9,2,12,0.00,1,Fog,100
2013-8-28,97,82,66,67,63,60,93,62,31,30.10,30.05,30.01,10,9,5,13,3,15,0.00,2,,86
2013-8-29,96,81,65,68,65,62,100,68,36,30.10,30.04,29.98,10,8,3,10,1,15,0.00,1,,118
2013-8-30,98,83,68,72,67,65,93,64,35,30.04,29.98,29.91,10,8,4,8,3,22,0.00,1,,157
2013-8-31,97,84,71,72,69,67,90,64,38,29.97,29.91,29.84,10,8,2,13,5,16,0.00,0,,192